Time,TemperatureF,DewpointF,PressureIn,WindDirection,WindDirectionDegrees,WindSpeedMPH,WindSpeedGustMPH,Humidity,HourlyPrecipIn,Conditions,Clouds,dailyrainin,SoftwareType,DateUTC
2015-07-29 00:03:00,67.0,64.0,29.98,South,181,0.0,-999.0,91,-99.99,,,-99.99,,2015-07-29 04:03:00,
2015-07-29 00:13:00,66.0,64.0,29.99,South,181,0.0,-999.0,92,-99.99,,,-99.99,,2015-07-29 04:13:00,
2015-07-29 00:23:00,66.0,64.0,29.99,South,181,0.0,-999.0,92,-99.99,,,-99.99,,2015-07-29 04:23:00,
2015-07-29 00:34:00,66.0,64.0,29.99,South,181,0.0,-999.0,92,-99.99,,,-99.99,,2015-07-29 04:34:00,
2015-07-29 00:53:00,66.0,64.0,29.98,South,181,0.0,-999.0,92,-99.99,,,-99.99,,2015-07-29 04:53:00,
2015-07-29 01:05:00,65.0,63.0,29.99,South,181,0.0,-999.0,92,-99.99,,,-99.99,,2015-07-29 05:05:00,
2015-07-29 01:13:00,65.0,63.0,29.99,South,181,0.0,-999.0,92,-99.99,,,-99.99,,2015-07-29 05:13:00,
2015-07-29 01:23:00,65.0,63.0,29.99,South,181,0.0,-999.0,92,-99.99,,,-99.99,,2015-07-29 05:23:00,
2015-07-29 01:34:00,65.0,63.0,29.99,South,181,0.0,-999.0,93,-99.99,,,-99.99,,2015-07-29 05:34:00,
2015-07-29 01:44:00,65.0,63.0,29.99,South,181,0.0,-999.0,93,-99.99,,,-99.99,,2015-07-29 05:44:00,
2015-07-29 01:53:00,65.0,63.0,29.99,South,181,0.0,-999.0,93,-99.99,,,-99.99,,2015-07-29 05:53:00,
2015-07-29 02:03:00,64.0,62.0,29.99,South,181,0.0,-999.0,94,-99.99,,,-99.99,,2015-07-29 06:03:00,
2015-07-29 02:13:00,64.0,62.0,29.99,South,181,0.0,-999.0,93,-99.99,,,-99.99,,2015-07-29 06:13:00,
2015-07-29 02:23:00,64.0,62.0,29.99,South,181,0.0,-999.0,93,-99.99,,,-99.99,,2015-07-29 06:23:00,
2015-07-29 02:34:00,64.0,62.0,29.99,South,181,0.0,-999.0,94,-99.99,,,-99.99,,2015-07-29 06:34:00,
2015-07-29 02:44:00,63.0,61.0,29.99,South,181,0.0,-999.0,94,-99.99,,,-99.99,,2015-07-29 06:44:00,
2015-07-29 02:54:00,63.0,61.0,29.99,South,181,0.0,-999.0,94,-99.99,,,-99.99,,2015-07-29 06:54:00,
2015-07-29 03:04:00,64.0,62.0,29.99,South,181,0.0,-999.0,94,-99.99,,,-99.99,,2015-07-29 07:04:00,
2015-07-29 03:13:00,63.0,61.0,29.98,South,181,0.0,-999.0,94,-99.99,,,-99.99,,2015-07-29 07:13:00,
2015-07-29 03:23:00,63.0,61.0,29.98,South,181,0.0,-999.0,94,-99.99,,,-99.99,,2015-07-29 07:23:00,
2015-07-29 03:34:00,63.0,62.0,29.97,South,181,0.0,-999.0,95,-99.99,,,-99.99,,2015-07-29 07:34:00,
2015-07-29 03:44:00,63.0,62.0,29.97,South,181,1.0,-999.0,95,-99.99,,,-99.99,,2015-07-29 07:44:00,
2015-07-29 03:53:00,63.0,62.0,29.97,South,181,1.0,-999.0,95,-99.99,,,-99.99,,2015-07-29 07:53:00,
2015-07-29 04:04:00,62.0,61.0,29.97,South,181,0.0,-999.0,95,-99.99,,,-99.99,,2015-07-29 08:04:00,
2015-07-29 04:23:00,62.0,61.0,29.97,South,181,0.0,-999.0,95,-99.99,,,-99.99,,2015-07-29 08:23:00,
2015-07-29 04:33:00,62.0,61.0,29.98,South,181,0.0,-999.0,95,-99.99,,,-99.99,,2015-07-29 08:33:00,
2015-07-29 04:43:00,61.0,60.0,29.98,South,181,0.0,-999.0,95,-99.99,,,-99.99,,2015-07-29 08:43:00,
2015-07-29 04:54:00,61.0,60.0,29.98,South,181,0.0,-999.0,95,-99.99,,,-99.99,,2015-07-29 08:54:00,
2015-07-29 05:03:00,62.0,61.0,29.98,South,181,0.0,-999.0,96,-99.99,,,-99.99,,2015-07-29 09:03:00,
2015-07-29 05:13:00,62.0,61.0,29.98,South,181,0.0,-999.0,96,-99.99,,,-99.99,,2015-07-29 09:13:00,
2015-07-29 05:33:00,62.0,61.0,29.98,South,181,0.0,-999.0,95,-99.99,,,-99.99,,2015-07-29 09:33:00,
2015-07-29 05:44:00,62.0,61.0,29.98,South,181,0.0,-999.0,95,-99.99,,,-99.99,,2015-07-29 09:44:00,
2015-07-29 05:53:00,62.0,61.0,29.98,South,181,0.0,-999.0,95,-99.99,,,-99.99,,2015-07-29 09:53:00,
2015-07-29 06:03:00,61.0,60.0,29.98,South,181,0.0,-999.0,95,-99.99,,,-99.99,,2015-07-29 10:03:00,
2015-07-29 06:13:00,61.0,60.0,29.98,South,181,0.0,-999.0,95,-99.99,,,-99.99,,2015-07-29 10:13:00,
2015-07-29 06:23:00,61.0,60.0,29.98,South,181,0.0,-999.0,95,-99.99,,,-99.99,,2015-07-29 10:23:00,
2015-07-29 06:34:00,61.0,60.0,29.98,South,181,0.0,-999.0,96,-99.99,,,-99.99,,2015-07-29 10:34:00,
2015-07-29 06:46:00,61.0,60.0,29.98,South,181,0.0,-999.0,96,-99.99,,,-99.99,,2015-07-29 10:46:00,
2015-07-29 06:54:00,61.0,60.0,29.98,South,181,0.0,-999.0,96,-99.99,,,-99.99,,2015-07-29 10:54:00,
2015-07-29 07:04:00,61.0,60.0,29.98,SE,145,1.0,-999.0,96,-99.99,,,-99.99,,2015-07-29 11:04:00,
2015-07-29 07:13:00,62.0,61.0,29.99,SE,145,0.0,-999.0,96,-99.99,,,-99.99,,2015-07-29 11:13:00,
2015-07-29 07:44:00,63.0,62.0,30.00,SW,235,0.0,-999.0,96,-99.99,,,-99.99,,2015-07-29 11:44:00,
2015-07-29 07:54:00,63.0,62.0,30.00,SW,235,0.0,-999.0,96,-99.99,,,-99.99,,2015-07-29 11:54:00,
2015-07-29 08:04:00,64.0,63.0,30.00,SW,235,0.0,-999.0,97,-99.99,,,-99.99,,2015-07-29 12:04:00,
2015-07-29 08:13:00,65.0,64.0,30.00,SW,235,0.0,-999.0,96,-99.99,,,-99.99,,2015-07-29 12:13:00,
2015-07-29 08:24:00,65.0,64.0,30.00,SW,235,0.0,-999.0,96,-99.99,,,-99.99,,2015-07-29 12:24:00,
2015-07-29 08:34:00,67.0,65.0,30.00,SW,236,0.0,-999.0,94,-99.99,,,-99.99,,2015-07-29 12:34:00,
2015-07-29 08:43:00,69.0,66.0,30.00,SW,236,0.0,-999.0,91,-99.99,,,-99.99,,2015-07-29 12:43:00,
2015-07-29 08:54:00,69.0,66.0,30.00,SW,236,0.0,-999.0,91,-99.99,,,-99.99,,2015-07-29 12:54:00,
2015-07-29 09:03:00,71.0,67.0,30.00,SW,235,0.0,-999.0,87,-99.99,,,-99.99,,2015-07-29 13:03:00,
2015-07-29 09:13:00,73.0,68.0,30.00,SW,234,0.0,-999.0,83,-99.99,,,-99.99,,2015-07-29 13:13:00,
2015-07-29 09:23:00,73.0,68.0,30.00,SW,234,0.0,-999.0,83,-99.99,,,-99.99,,2015-07-29 13:23:00,
2015-07-29 09:34:00,74.0,67.0,29.99,SW,228,0.0,-999.0,80,-99.99,,,-99.99,,2015-07-29 13:34:00,
2015-07-29 09:44:00,75.0,68.0,29.99,SW,228,0.0,-999.0,79,-99.99,,,-99.99,,2015-07-29 13:44:00,
2015-07-29 09:53:00,75.0,68.0,29.99,SW,228,0.0,-999.0,79,-99.99,,,-99.99,,2015-07-29 13:53:00,
2015-07-29 10:03:00,76.0,69.0,29.99,SW,228,0.0,-999.0,78,-99.99,,,-99.99,,2015-07-29 14:03:00,
2015-07-29 10:13:00,77.0,70.0,29.99,SW,228,0.0,-999.0,79,-99.99,,,-99.99,,2015-07-29 14:13:00,
2015-07-29 10:23:00,77.0,70.0,29.99,SW,228,0.0,-999.0,79,-99.99,,,-99.99,,2015-07-29 14:23:00,
2015-07-29 10:44:00,80.0,71.0,29.99,SW,228,0.0,-999.0,74,-99.99,,,-99.99,,2015-07-29 14:44:00,
2015-07-29 10:53:00,80.0,71.0,29.99,SW,228,0.0,-999.0,74,-99.99,,,-99.99,,2015-07-29 14:53:00,
2015-07-29 11:03:00,81.0,71.0,29.99,SW,228,1.0,-999.0,72,-99.99,,,-99.99,,2015-07-29 15:03:00,
2015-07-29 11:13:00,81.0,72.0,29.99,SW,228,2.0,-999.0,73,-99.99,,,-99.99,,2015-07-29 15:13:00,
2015-07-29 11:23:00,81.0,72.0,29.99,SW,228,2.0,-999.0,73,-99.99,,,-99.99,,2015-07-29 15:23:00,
2015-07-29 11:34:00,82.0,72.0,29.99,SW,228,0.0,-999.0,72,-99.99,,,-99.99,,2015-07-29 15:34:00,
2015-07-29 11:44:00,83.0,73.0,29.99,SW,228,1.0,-999.0,71,-99.99,,,-99.99,,2015-07-29 15:44:00,
2015-07-29 11:53:00,83.0,73.0,29.99,SW,228,1.0,-999.0,71,-99.99,,,-99.99,,2015-07-29 15:53:00,
2015-07-29 12:04:00,85.0,74.0,29.99,North,-9999,-999.9,-999.0,69,-99.99,,,-99.99,,2015-07-29 16:04:00,
2015-07-29 12:24:00,86.0,74.0,29.98,SW,228,1.0,-999.0,68,-99.99,,,-99.99,,2015-07-29 16:24:00,
2015-07-29 12:36:00,85.0,73.0,29.98,SSE,161,10.0,-999.0,68,-99.99,,,-99.99,,2015-07-29 16:36:00,
2015-07-29 12:54:00,86.0,74.0,29.98,South,169,6.0,-999.0,67,-99.99,,,-99.99,,2015-07-29 16:54:00,
2015-07-29 13:13:00,86.0,73.0,29.97,SSW,192,3.0,-999.0,66,-99.99,,,-99.99,,2015-07-29 17:13:00,
2015-07-29 13:24:00,86.0,73.0,29.97,SSW,192,3.0,-999.0,66,-99.99,,,-99.99,,2015-07-29 17:24:00,
2015-07-29 13:34:00,87.0,74.0,29.97,South,191,3.0,-999.0,66,-99.99,,,-99.99,,2015-07-29 17:34:00,
2015-07-29 13:44:00,87.0,74.0,29.97,South,191,3.0,-999.0,66,-99.99,,,-99.99,,2015-07-29 17:44:00,
2015-07-29 13:56:00,88.0,74.0,29.96,South,191,1.0,-999.0,63,-99.99,,,-99.99,,2015-07-29 17:56:00,
2015-07-29 14:04:00,88.0,74.0,29.96,South,191,1.0,-999.0,63,-99.99,,,-99.99,,2015-07-29 18:04:00,
2015-07-29 14:13:00,88.0,74.0,29.96,South,191,1.0,-999.0,63,-99.99,,,-99.99,,2015-07-29 18:13:00,
2015-07-29 14:22:00,88.0,74.0,29.96,South,191,1.0,-999.0,63,-99.99,,,-99.99,,2015-07-29 18:22:00,
2015-07-29 14:44:00,88.0,71.0,29.95,SSE,155,10.0,-999.0,58,-99.99,,,-99.99,,2015-07-29 18:44:00,
2015-07-29 14:54:00,88.0,71.0,29.95,SSE,155,10.0,-999.0,58,-99.99,,,-99.99,,2015-07-29 18:54:00,
2015-07-29 15:05:00,88.0,70.0,29.94,SSW,196,11.0,-999.0,55,-99.99,,,-99.99,,2015-07-29 19:05:00,
2015-07-29 15:24:00,89.0,71.0,29.94,South,188,7.0,-999.0,56,-99.99,,,-99.99,,2015-07-29 19:24:00,
2015-07-29 15:34:00,89.0,71.0,29.93,South,188,9.0,-999.0,55,-99.99,,,-99.99,,2015-07-29 19:34:00,
2015-07-29 15:45:00,89.0,72.0,29.93,SSE,147,14.0,-999.0,58,-99.99,,,-99.99,,2015-07-29 19:45:00,
2015-07-29 15:54:00,89.0,72.0,29.93,SSE,147,14.0,-999.0,58,-99.99,,,-99.99,,2015-07-29 19:54:00,
2015-07-29 16:04:00,89.0,71.0,29.93,SSE,156,5.0,-999.0,56,-99.99,,,-99.99,,2015-07-29 20:04:00,
2015-07-29 16:13:00,89.0,71.0,29.93,SSE,156,5.0,-999.0,56,-99.99,,,-99.99,,2015-07-29 20:13:00,
2015-07-29 16:23:00,89.0,71.0,29.93,SSE,156,5.0,-999.0,56,-99.99,,,-99.99,,2015-07-29 20:23:00,
2015-07-29 16:34:00,90.0,73.0,29.91,SSE,155,7.0,-999.0,57,-99.99,,,-99.99,,2015-07-29 20:34:00,
2015-07-29 16:44:00,90.0,72.0,29.90,SSE,155,2.0,-999.0,56,-99.99,,,-99.99,,2015-07-29 20:44:00,
2015-07-29 16:54:00,90.0,72.0,29.90,SSE,155,2.0,-999.0,56,-99.99,,,-99.99,,2015-07-29 20:54:00,
2015-07-29 17:04:00,90.0,73.0,29.90,SSE,156,6.0,-999.0,57,-99.99,,,-99.99,,2015-07-29 21:04:00,
2015-07-29 17:13:00,89.0,73.0,29.90,SSE,156,10.0,-999.0,59,-99.99,,,-99.99,,2015-07-29 21:13:00,
2015-07-29 17:23:00,89.0,73.0,29.90,SSE,156,10.0,-999.0,59,-99.99,,,-99.99,,2015-07-29 21:23:00,
2015-07-29 17:34:00,88.0,73.0,29.89,SSE,159,12.0,-999.0,61,-99.99,,,-99.99,,2015-07-29 21:34:00,
2015-07-29 17:46:00,88.0,72.0,29.89,SSE,157,8.0,-999.0,59,-99.99,,,-99.99,,2015-07-29 21:46:00,
2015-07-29 17:54:00,88.0,72.0,29.89,North,-9999,-999.9,-999.0,59,-99.99,,,-99.99,,2015-07-29 21:54:00,
2015-07-29 18:03:00,89.0,73.0,29.89,SSE,157,9.0,-999.0,60,-99.99,,,-99.99,,2015-07-29 22:03:00,
2015-07-29 18:13:00,88.0,73.0,29.88,SSE,153,14.0,-999.0,61,-99.99,,,-99.99,,2015-07-29 22:13:00,
2015-07-29 18:33:00,87.0,73.0,29.88,SSE,153,10.0,-999.0,63,-99.99,,,-99.99,,2015-07-29 22:33:00,
2015-07-29 18:48:00,87.0,74.0,29.88,SSE,153,7.0,-999.0,65,-99.99,,,-99.99,,2015-07-29 22:48:00,
2015-07-29 18:56:00,87.0,74.0,29.88,SSE,153,7.0,-999.0,65,-99.99,,,-99.99,,2015-07-29 22:56:00,
2015-07-29 19:03:00,87.0,74.0,29.88,SSE,153,9.0,-999.0,65,-99.99,,,-99.99,,2015-07-29 23:03:00,
2015-07-29 19:13:00,87.0,75.0,29.88,SSE,153,9.0,-999.0,68,-99.99,,,-99.99,,2015-07-29 23:13:00,